createdAt,value
2019-01-10T00:02:28.909Z,0.70
2019-01-10T00:04:59.270Z,0.70
2019-01-10T00:07:29.677Z,0.70
2019-01-10T00:10:00.163Z,0.60
2019-01-10T00:12:39.238Z,0.70
2019-01-10T00:15:02.610Z,0.70
2019-01-10T00:17:32.971Z,0.70
2019-01-10T00:20:03.422Z,0.80
2019-01-10T00:22:33.828Z,0.80
2019-01-10T00:25:05.315Z,0.90
2019-01-10T00:27:35.689Z,0.80
2019-01-10T00:30:10.069Z,0.70
2019-01-10T00:32:40.457Z,0.70
2019-01-10T00:35:11.045Z,0.80
2019-01-10T00:37:41.439Z,0.80
2019-01-10T00:40:13.224Z,0.90
2019-01-10T00:42:49.016Z,1.00
2019-01-10T00:45:16.427Z,1.10
2019-01-10T00:47:47.922Z,1.10
2019-01-10T00:50:20.514Z,1.00
2019-01-10T00:52:50.970Z,1.10
2019-01-10T00:55:21.396Z,1.00
2019-01-10T00:57:51.818Z,1.00
2019-01-10T01:00:24.068Z,1.00
2019-01-10T01:02:54.582Z,0.90
2019-01-10T01:05:25.041Z,0.90
2019-01-10T01:07:55.425Z,0.80
2019-01-10T01:10:27.211Z,1.00
2019-01-10T01:12:58.629Z,1.10
2019-01-10T01:15:29.339Z,0.90
2019-01-10T01:17:59.814Z,0.70
2019-01-10T01:20:30.301Z,0.60
2019-01-10T01:23:00.677Z,0.80
2019-01-10T01:25:31.044Z,0.80
2019-01-10T01:28:01.433Z,1.00
2019-01-10T01:30:31.802Z,1.00
2019-01-10T01:33:02.221Z,1.20
2019-01-10T01:35:32.585Z,1.30
2019-01-10T01:38:02.977Z,1.20
2019-01-10T01:40:33.341Z,0.90
2019-01-10T01:43:07.474Z,0.90
2019-01-10T01:45:36.193Z,0.90
2019-01-10T01:48:08.208Z,1.00
2019-01-10T01:50:38.577Z,0.90
2019-01-10T01:53:08.967Z,1.00
2019-01-10T01:55:39.473Z,0.90
2019-01-10T01:58:09.899Z,1.00
2019-01-10T02:00:41.147Z,1.10
2019-01-10T02:03:11.552Z,1.00
2019-01-10T02:05:41.926Z,0.90
2019-01-10T02:08:12.309Z,1.10
2019-01-10T02:10:42.674Z,1.30
2019-01-10T02:13:16.921Z,1.20
2019-01-10T02:15:45.134Z,1.30
2019-01-10T02:18:15.533Z,1.30
2019-01-10T02:20:45.954Z,1.50
2019-01-10T02:23:16.338Z,1.50
2019-01-10T02:25:46.706Z,1.40
2019-01-10T02:28:17.118Z,1.20
2019-01-10T02:30:47.522Z,1.10
2019-01-10T02:33:17.905Z,1.30
2019-01-10T02:35:48.280Z,1.00
2019-01-10T02:38:18.673Z,0.90
2019-01-10T02:40:49.083Z,0.70
2019-01-10T02:43:26.340Z,0.80
2019-01-10T02:45:51.522Z,0.80
2019-01-10T02:48:21.900Z,0.70
2019-01-10T02:50:52.369Z,0.90
2019-01-10T02:53:22.720Z,0.80
2019-01-10T02:55:53.098Z,1.00
2019-01-10T02:58:23.482Z,1.00
2019-01-10T03:00:53.906Z,1.10
2019-01-10T03:03:24.402Z,1.20
2019-01-10T03:05:54.867Z,1.30
2019-01-10T03:08:25.287Z,1.30
2019-01-10T03:10:55.689Z,1.30
2019-01-10T03:13:36.114Z,1.30
2019-01-10T03:15:58.168Z,1.50
2019-01-10T03:18:28.510Z,1.50
2019-01-10T03:20:58.899Z,1.40
2019-01-10T03:23:29.265Z,1.20
2019-01-10T03:25:59.674Z,1.30
2019-01-10T03:28:30.047Z,1.30
2019-01-10T03:31:00.471Z,1.40
2019-01-10T03:33:30.832Z,1.50
2019-01-10T03:36:01.228Z,1.40
2019-01-10T03:38:31.593Z,1.30
2019-01-10T03:41:01.965Z,1.20
2019-01-10T03:43:32.372Z,1.10
2019-01-10T03:46:02.843Z,1.10
2019-01-10T03:48:33.242Z,1.30
2019-01-10T03:51:03.706Z,1.40
2019-01-10T03:53:34.129Z,1.40
2019-01-10T03:56:04.505Z,1.30
2019-01-10T03:58:34.874Z,1.30
2019-01-10T04:01:05.634Z,1.40
2019-01-10T04:03:36.013Z,1.40
2019-01-10T04:06:06.392Z,1.30
2019-01-10T04:08:36.822Z,1.30
2019-01-10T04:11:07.292Z,1.30
2019-01-10T04:13:38.191Z,1.10
2019-01-10T04:16:08.654Z,1.30
2019-01-10T04:18:39.086Z,1.30
2019-01-10T04:21:16.940Z,1.40
2019-01-10T04:23:41.538Z,1.50
2019-01-10T04:26:11.898Z,1.50
2019-01-10T04:28:42.346Z,1.30
2019-01-10T04:31:12.712Z,1.30
2019-01-10T04:33:43.093Z,1.30
2019-01-10T04:36:13.515Z,1.40
2019-01-10T04:38:43.896Z,1.50
2019-01-10T04:41:14.274Z,1.50
2019-01-10T04:43:44.622Z,1.30
2019-01-10T04:46:15.002Z,1.10
2019-01-10T04:48:45.352Z,1.10
2019-01-10T04:51:15.746Z,1.00
2019-01-10T04:53:46.135Z,1.10
2019-01-10T04:56:16.571Z,1.10
2019-01-10T04:58:46.940Z,1.30
2019-01-10T05:01:17.323Z,1.30
2019-01-10T05:03:47.737Z,1.10
2019-01-10T05:06:18.258Z,1.10
2019-01-10T05:08:48.634Z,1.10
2019-01-10T05:11:19.051Z,1.20
2019-01-10T05:13:49.549Z,1.30
2019-01-10T05:16:19.934Z,1.40
2019-01-10T05:18:50.299Z,1.40
2019-01-10T05:21:20.751Z,1.40
2019-01-10T05:23:51.123Z,1.40
2019-01-10T05:26:21.510Z,1.40
2019-01-10T05:28:51.907Z,1.40
2019-01-10T05:31:22.290Z,1.30
2019-01-10T05:33:52.709Z,1.20
2019-01-10T05:36:23.077Z,1.30
2019-01-10T05:38:53.475Z,1.40
2019-01-10T05:41:23.834Z,1.30
2019-01-10T05:43:54.233Z,1.40
2019-01-10T05:46:24.611Z,1.50
2019-01-10T05:48:55.095Z,1.30
2019-01-10T05:51:25.477Z,1.30
2019-01-10T05:53:55.912Z,1.20
2019-01-10T05:56:26.330Z,1.20
2019-01-10T05:58:56.711Z,1.30
2019-01-10T06:01:27.185Z,1.50
2019-01-10T06:03:57.540Z,1.50
2019-01-10T06:06:27.951Z,1.30
2019-01-10T06:08:58.347Z,1.30
2019-01-10T06:11:28.707Z,1.10
2019-01-10T06:13:59.090Z,1.20
2019-01-10T06:16:29.467Z,1.30
2019-01-10T06:18:59.858Z,1.40
2019-01-10T06:21:30.305Z,1.50
2019-01-10T06:24:00.681Z,1.40
2019-01-10T06:26:31.039Z,1.50
2019-01-10T06:29:01.438Z,1.50
2019-01-10T06:31:31.802Z,1.50
2019-01-10T06:34:02.255Z,1.50
2019-01-10T06:36:32.610Z,1.60
2019-01-10T06:39:03.046Z,1.50
2019-01-10T06:41:33.418Z,1.50
2019-01-10T06:44:03.806Z,1.60
2019-01-10T06:46:34.166Z,1.70
2019-01-10T06:49:04.505Z,1.60
2019-01-10T06:51:36.240Z,1.60
2019-01-10T06:54:06.725Z,1.60
2019-01-10T06:56:37.387Z,1.60
2019-01-10T06:59:07.745Z,1.60
2019-01-10T07:01:38.148Z,1.60
2019-01-10T07:04:08.513Z,1.60
2019-01-10T07:06:38.874Z,1.40
2019-01-10T07:09:09.790Z,1.40
2019-01-10T07:11:40.141Z,1.50
2019-01-10T07:14:10.507Z,1.60
2019-01-10T07:16:40.869Z,1.60
2019-01-10T07:19:11.215Z,1.60
2019-01-10T07:21:56.968Z,1.60
2019-01-10T07:24:27.674Z,1.60
2019-01-10T07:27:01.061Z,1.40
2019-01-10T07:29:31.413Z,1.50
2019-01-10T07:32:01.920Z,1.50
2019-01-10T07:34:32.263Z,1.40
2019-01-10T07:37:02.651Z,1.30
2019-01-10T07:39:35.614Z,1.40
2019-01-10T07:42:06.005Z,1.50
2019-01-10T07:44:36.353Z,1.50
2019-01-10T07:47:08.207Z,1.40
2019-01-10T07:49:38.759Z,1.40
2019-01-10T07:52:09.343Z,1.50
2019-01-10T07:54:39.698Z,1.60
2019-01-10T07:57:10.059Z,1.70
2019-01-10T07:59:40.422Z,1.70
2019-01-10T08:02:10.817Z,1.70
2019-01-10T08:04:41.158Z,1.80
2019-01-10T08:07:11.549Z,1.80
2019-01-10T08:09:41.921Z,1.70
2019-01-10T08:12:12.276Z,1.80
2019-01-10T08:14:42.653Z,1.60
2019-01-10T08:17:16.154Z,1.60
2019-01-10T08:19:45.067Z,1.70
2019-01-10T08:22:15.426Z,1.70
2019-01-10T08:24:45.801Z,1.70
2019-01-10T08:27:16.136Z,1.70
2019-01-10T08:29:46.578Z,1.60
2019-01-10T08:32:16.993Z,1.60
2019-01-10T08:34:47.382Z,1.50
2019-01-10T08:37:17.748Z,1.40
2019-01-10T08:39:48.153Z,1.50
2019-01-10T08:42:18.514Z,1.60
2019-01-10T08:44:48.937Z,1.70
2019-01-10T08:47:19.277Z,1.70
2019-01-10T08:49:49.681Z,1.80
2019-01-10T08:52:20.019Z,1.70
2019-01-10T08:54:51.784Z,1.80
2019-01-10T08:57:23.165Z,1.80
2019-01-10T08:59:53.689Z,1.80
2019-01-10T09:02:24.026Z,1.80
2019-01-10T09:04:54.382Z,1.90
2019-01-10T09:07:24.856Z,2.00
2019-01-10T09:09:55.206Z,1.90
2019-01-10T09:12:25.573Z,2.00
2019-01-10T09:14:56.033Z,1.90
2019-01-10T09:17:26.433Z,2.00
2019-01-10T09:19:56.795Z,1.90
2019-01-10T09:22:27.153Z,2.00
2019-01-10T09:24:57.535Z,2.10
2019-01-10T09:27:27.922Z,2.10
2019-01-10T09:29:58.402Z,2.00
2019-01-10T09:32:28.815Z,1.80
2019-01-10T09:34:59.173Z,1.90
2019-01-10T09:37:29.633Z,1.90
2019-01-10T09:39:59.994Z,1.80
2019-01-10T09:42:30.364Z,1.80
2019-01-10T09:45:00.733Z,2.00
2019-01-10T09:47:31.110Z,2.10
2019-01-10T09:50:01.701Z,2.10
2019-01-10T09:52:32.100Z,2.10
2019-01-10T09:55:02.458Z,2.00
2019-01-10T09:57:32.822Z,2.10
2019-01-10T10:00:03.160Z,2.10
2019-01-10T10:02:33.549Z,2.10
2019-01-10T10:05:04.263Z,2.00
2019-01-10T10:07:34.659Z,1.90
2019-01-10T10:10:06.925Z,2.10
2019-01-10T10:12:37.362Z,2.00
2019-01-10T10:15:09.463Z,1.90
2019-01-10T10:17:40.030Z,1.90
2019-01-10T10:20:14.801Z,2.00
2019-01-10T10:22:45.090Z,2.10
2019-01-10T10:25:15.470Z,2.00
2019-01-10T10:27:45.849Z,1.70
2019-01-10T10:30:18.634Z,1.70
2019-01-10T10:32:49.014Z,1.80
2019-01-10T10:35:19.837Z,2.00
2019-01-10T10:37:50.255Z,2.10
2019-01-10T10:40:22.185Z,2.10
2019-01-10T10:42:53.284Z,2.00
2019-01-10T10:45:24.308Z,1.80
2019-01-10T10:47:54.740Z,1.90
2019-01-10T10:50:29.560Z,2.00
2019-01-10T10:52:59.957Z,2.10
2019-01-10T10:55:30.394Z,2.10
2019-01-10T10:58:00.745Z,2.20
2019-01-10T11:00:31.489Z,2.30
2019-01-10T11:03:02.180Z,2.20
2019-01-10T11:05:32.630Z,2.20
2019-01-10T11:08:02.977Z,2.00
2019-01-10T11:10:34.936Z,2.00
2019-01-10T11:13:05.282Z,2.00
2019-01-10T11:15:35.658Z,1.90
2019-01-10T11:18:06.333Z,1.90
2019-01-10T11:20:36.749Z,2.00
2019-01-10T11:23:10.823Z,2.20
2019-01-10T11:25:39.153Z,2.20
2019-01-10T11:28:09.525Z,2.20
2019-01-10T11:30:39.935Z,1.80
2019-01-10T11:33:10.386Z,1.90
2019-01-10T11:35:40.768Z,2.00
2019-01-10T11:38:11.183Z,2.10
2019-01-10T11:40:41.536Z,2.00
2019-01-10T11:43:11.893Z,2.00
2019-01-10T11:45:42.359Z,2.10
2019-01-10T11:48:12.741Z,2.20
2019-01-10T11:50:43.122Z,2.10
2019-01-10T11:53:13.473Z,2.10
2019-01-10T11:55:43.829Z,2.30
2019-01-10T11:58:14.174Z,2.20
2019-01-10T12:00:46.019Z,2.20
2019-01-10T12:03:16.377Z,2.30
2019-01-10T12:05:52.899Z,2.40
2019-01-10T12:08:21.377Z,2.20
2019-01-10T12:10:51.743Z,2.20
2019-01-10T12:13:22.102Z,2.20
2019-01-10T12:15:52.467Z,2.10
2019-01-10T12:18:22.827Z,2.00
2019-01-10T12:20:53.185Z,2.10
2019-01-10T12:23:23.546Z,2.20
2019-01-10T12:25:53.937Z,2.30
2019-01-10T12:28:24.284Z,2.30
2019-01-10T12:30:54.769Z,2.20
2019-01-10T12:33:25.177Z,2.30
2019-01-10T12:35:55.539Z,2.20
2019-01-10T12:38:25.891Z,2.20
2019-01-10T12:40:56.264Z,2.30
2019-01-10T12:43:26.754Z,2.40
2019-01-10T12:45:57.187Z,2.30
2019-01-10T12:48:27.561Z,2.10
2019-01-10T12:50:57.881Z,1.90
2019-01-10T12:53:28.238Z,2.00
2019-01-10T12:55:58.690Z,2.00
2019-01-10T12:58:29.034Z,1.90
2019-01-10T13:00:59.396Z,2.00
2019-01-10T13:03:29.784Z,1.70
2019-01-10T13:06:00.133Z,1.70
2019-01-10T13:08:30.505Z,1.80
2019-01-10T13:11:00.862Z,2.00
2019-01-10T13:13:31.221Z,1.70
2019-01-10T13:16:01.592Z,1.70
2019-01-10T13:18:32.022Z,1.80
2019-01-10T13:21:02.583Z,1.80
2019-01-10T13:23:32.999Z,1.90
2019-01-10T13:26:03.353Z,2.10
2019-01-10T13:28:33.693Z,2.10
2019-01-10T13:31:04.065Z,2.20
2019-01-10T13:33:34.402Z,2.30
2019-01-10T13:36:06.067Z,2.30
2019-01-10T13:38:36.477Z,2.10
2019-01-10T13:41:07.150Z,2.00
2019-01-10T13:43:37.542Z,1.80
2019-01-10T13:46:07.905Z,1.90
2019-01-10T13:48:38.444Z,1.80
2019-01-10T13:51:08.822Z,1.70
2019-01-10T13:53:39.198Z,1.90
2019-01-10T13:56:09.574Z,1.90
2019-01-10T13:58:39.942Z,2.00
2019-01-10T14:01:10.380Z,2.10
2019-01-10T14:03:40.739Z,2.00
2019-01-10T14:06:11.354Z,1.90
2019-01-10T14:08:41.693Z,1.60
2019-01-10T14:11:12.054Z,1.80
2019-01-10T14:13:42.432Z,2.00
2019-01-10T14:16:12.805Z,1.90
2019-01-10T14:18:43.162Z,1.80
2019-01-10T14:21:13.698Z,1.80
2019-01-10T14:23:44.033Z,2.00
2019-01-10T14:26:14.451Z,1.90
2019-01-10T14:28:44.845Z,2.00
2019-01-10T14:31:15.342Z,2.10
2019-01-10T14:33:45.726Z,1.80
2019-01-10T14:36:16.118Z,1.60
2019-01-10T14:38:46.493Z,1.70
2019-01-10T14:41:16.821Z,1.80
2019-01-10T14:43:47.205Z,1.80
2019-01-10T14:46:17.570Z,1.70
2019-01-10T14:48:47.919Z,2.00
2019-01-10T14:51:18.263Z,2.00
2019-01-10T14:53:48.614Z,1.90
2019-01-10T14:56:18.969Z,1.90
2019-01-10T14:58:49.618Z,2.00
2019-01-10T15:01:20.017Z,1.80
2019-01-10T15:03:50.406Z,1.80
2019-01-10T15:06:20.880Z,1.50
2019-01-10T15:08:51.291Z,1.70
2019-01-10T15:11:21.701Z,1.80
2019-01-10T15:13:52.080Z,1.70
2019-01-10T15:16:22.609Z,1.80
2019-01-10T15:18:53.257Z,1.60
2019-01-10T15:21:23.674Z,1.60
2019-01-10T15:23:54.146Z,1.60
2019-01-10T15:26:24.498Z,1.70
2019-01-10T15:28:54.885Z,1.70
2019-01-10T15:31:25.301Z,1.80
2019-01-10T15:33:55.737Z,1.80
2019-01-10T15:36:26.121Z,1.90
2019-01-10T15:38:56.619Z,1.80
2019-01-10T15:41:27.018Z,1.80
2019-01-10T15:43:57.381Z,1.70
2019-01-10T15:46:27.845Z,1.80
2019-01-10T15:48:58.309Z,1.80
2019-01-10T15:51:28.685Z,1.80
2019-01-10T15:53:59.078Z,1.60
2019-01-10T15:56:29.442Z,1.60
2019-01-10T15:58:59.847Z,1.70
2019-01-10T16:01:30.207Z,1.70
2019-01-10T16:04:00.585Z,1.70
2019-01-10T16:06:30.940Z,1.90
2019-01-10T16:09:01.327Z,1.80
2019-01-10T16:11:31.806Z,1.90
2019-01-10T16:14:02.207Z,1.80
2019-01-10T16:16:32.575Z,1.80
2019-01-10T16:19:02.930Z,1.70
2019-01-10T16:21:33.305Z,1.70
2019-01-10T16:24:03.705Z,1.90
2019-01-10T16:26:34.054Z,1.90
2019-01-10T16:29:04.634Z,1.90
2019-01-10T16:31:34.982Z,1.90
2019-01-10T16:34:05.380Z,1.90
2019-01-10T16:36:35.738Z,1.70
2019-01-10T16:39:08.703Z,1.70
2019-01-10T16:41:39.044Z,1.70
2019-01-10T16:44:09.526Z,1.50
2019-01-10T16:46:39.957Z,1.50
2019-01-10T16:49:10.398Z,1.50
2019-01-10T16:51:40.797Z,1.60
2019-01-10T16:54:11.158Z,1.70
2019-01-10T16:56:41.505Z,1.80
2019-01-10T16:59:12.015Z,1.60
2019-01-10T17:01:42.401Z,1.70
2019-01-10T17:04:12.796Z,1.80
2019-01-10T17:06:43.251Z,1.70
2019-01-10T17:09:17.615Z,1.60
2019-01-10T17:11:47.399Z,1.60
2019-01-10T17:14:17.785Z,1.60
2019-01-10T17:16:50.204Z,1.70
2019-01-10T17:19:20.362Z,1.50
2019-01-10T17:21:50.721Z,1.60
2019-01-10T17:24:21.180Z,1.60
2019-01-10T17:26:51.650Z,1.60
2019-01-10T17:29:22.003Z,1.70
2019-01-10T17:31:54.841Z,1.70
2019-01-10T17:34:25.240Z,1.60
2019-01-10T17:36:55.986Z,1.50
2019-01-10T17:39:26.478Z,1.50
2019-01-10T17:41:56.834Z,1.50
2019-01-10T17:44:27.227Z,1.40
2019-01-10T17:46:57.609Z,1.60
2019-01-10T17:49:27.952Z,1.50
2019-01-10T17:51:58.314Z,1.50
2019-01-10T17:54:28.662Z,1.50
2019-01-10T17:56:59.005Z,1.50
2019-01-10T17:59:29.348Z,1.60
2019-01-10T18:01:59.693Z,1.60
2019-01-10T18:04:30.069Z,1.60
2019-01-10T18:07:00.609Z,1.50
2019-01-10T18:09:30.953Z,1.60
2019-01-10T18:12:01.289Z,1.60
2019-01-10T18:14:31.682Z,1.60
2019-01-10T18:17:02.097Z,1.50
2019-01-10T18:19:32.465Z,1.50
2019-01-10T18:22:02.843Z,1.50
2019-01-10T18:24:33.301Z,1.40
2019-01-10T18:27:03.673Z,1.30
2019-01-10T18:29:34.035Z,1.40
2019-01-10T18:32:04.483Z,1.50
2019-01-10T18:34:34.969Z,1.50
2019-01-10T18:37:05.365Z,1.50
2019-01-10T18:39:35.898Z,1.50
2019-01-10T18:42:06.324Z,1.50
2019-01-10T18:44:36.739Z,1.50
2019-01-10T18:47:07.163Z,1.50
2019-01-10T18:49:37.590Z,1.50
2019-01-10T18:52:08.003Z,1.40
2019-01-10T18:54:38.476Z,1.50
2019-01-10T18:57:08.892Z,1.40
2019-01-10T18:59:39.286Z,1.40
2019-01-10T19:02:09.725Z,1.50
2019-01-10T19:04:40.143Z,1.50
2019-01-10T19:07:10.544Z,1.50
2019-01-10T19:09:41.012Z,1.50
2019-01-10T19:12:11.411Z,1.40
2019-01-10T19:14:41.854Z,1.40
2019-01-10T19:17:12.239Z,1.30
2019-01-10T19:19:42.645Z,1.30
2019-01-10T19:22:13.101Z,1.30
2019-01-10T19:24:43.501Z,1.30
2019-01-10T19:27:13.908Z,1.30
2019-01-10T19:29:44.293Z,1.30
2019-01-10T19:32:14.659Z,1.30
2019-01-10T19:34:45.027Z,1.30
2019-01-10T19:37:15.435Z,1.30
2019-01-10T19:39:45.849Z,1.40
2019-01-10T19:42:16.254Z,1.40
2019-01-10T19:44:46.662Z,1.40
2019-01-10T19:47:17.086Z,1.40
2019-01-10T19:49:47.525Z,1.40
2019-01-10T19:52:17.920Z,1.40
2019-01-10T19:54:48.323Z,1.20
2019-01-10T19:57:18.748Z,1.30
2019-01-10T19:59:49.202Z,1.40
2019-01-10T20:02:19.643Z,1.40
2019-01-10T20:04:50.014Z,1.40
2019-01-10T20:07:20.427Z,1.50
2019-01-10T20:09:52.402Z,1.40
2019-01-10T20:12:22.794Z,1.30
2019-01-10T20:14:53.183Z,1.40
2019-01-10T20:17:23.682Z,1.40
2019-01-10T20:19:54.099Z,1.30
2019-01-10T20:22:24.534Z,1.30
2019-01-10T20:24:55.015Z,1.40
2019-01-10T20:27:25.724Z,1.30
2019-01-10T20:29:56.165Z,1.10
2019-01-10T20:32:28.130Z,1.20
2019-01-10T20:34:58.539Z,1.20
2019-01-10T20:37:28.950Z,1.20
2019-01-10T20:39:59.417Z,1.30
2019-01-10T20:42:29.817Z,1.30
2019-01-10T20:45:00.230Z,1.30
2019-01-10T20:47:30.683Z,1.30
2019-01-10T20:50:01.065Z,1.30
2019-01-10T20:52:31.465Z,1.40
2019-01-10T20:55:01.989Z,1.30
2019-01-10T20:57:32.522Z,1.30
2019-01-10T21:00:03.039Z,1.40
2019-01-10T21:02:33.385Z,1.30
2019-01-10T21:05:03.998Z,1.30
2019-01-10T21:07:34.410Z,1.30
2019-01-10T21:10:06.397Z,1.30
2019-01-10T21:12:36.768Z,1.40
2019-01-10T21:15:09.289Z,1.30
2019-01-10T21:17:39.697Z,1.30
2019-01-10T21:20:10.355Z,1.30
2019-01-10T21:22:40.793Z,1.30
2019-01-10T21:25:11.593Z,1.30
2019-01-10T21:27:42.034Z,1.30
2019-01-10T21:30:14.891Z,1.30
2019-01-10T21:32:46.548Z,1.20
2019-01-10T21:35:17.054Z,1.20
2019-01-10T21:37:47.614Z,1.40
2019-01-10T21:40:19.887Z,1.40
2019-01-10T21:42:51.978Z,1.30
2019-01-10T21:45:23.508Z,1.30
2019-01-10T21:47:53.910Z,1.20
2019-01-10T21:50:26.167Z,1.20
2019-01-10T21:52:56.594Z,1.20
2019-01-10T21:55:26.972Z,1.30
2019-01-10T21:57:57.374Z,1.20
2019-01-10T22:00:29.742Z,1.20
2019-01-10T22:03:01.714Z,1.30
2019-01-10T22:05:32.123Z,1.30
2019-01-10T22:08:04.797Z,1.20
2019-01-10T22:10:35.295Z,1.10
2019-01-10T22:13:05.904Z,1.10
2019-01-10T22:15:36.270Z,1.20
2019-01-10T22:18:07.373Z,1.30
2019-01-10T22:20:38.253Z,1.30
2019-01-10T22:23:08.642Z,1.40
2019-01-10T22:25:39.050Z,1.40
2019-01-10T22:28:09.440Z,1.30
2019-01-10T22:30:39.841Z,1.30
2019-01-10T22:33:11.099Z,1.40
2019-01-10T22:35:41.490Z,1.40
2019-01-10T22:38:11.886Z,1.40
2019-01-10T22:40:42.290Z,1.40
2019-01-10T22:43:12.734Z,1.40
2019-01-10T22:45:43.131Z,1.30
2019-01-10T22:48:14.611Z,1.30
2019-01-10T22:50:44.995Z,1.20
2019-01-10T22:53:15.445Z,1.20
2019-01-10T22:55:45.845Z,1.20
2019-01-10T22:58:16.235Z,1.20
2019-01-10T23:01:26.280Z,1.10
2019-01-10T23:03:56.822Z,1.20
2019-01-10T23:06:27.210Z,1.10
2019-01-10T23:08:57.577Z,1.20
2019-01-10T23:11:27.994Z,1.10
2019-01-10T23:14:06.023Z,1.20
2019-01-10T23:16:37.186Z,1.10
2019-01-10T23:19:07.974Z,1.20
2019-01-10T23:21:40.001Z,1.20
2019-01-10T23:24:12.142Z,1.20
2019-01-10T23:26:51.369Z,1.20
2019-01-10T23:29:24.953Z,1.10
2019-01-10T23:31:55.401Z,1.10
2019-01-10T23:34:25.796Z,1.10
2019-01-10T23:36:56.168Z,1.10
2019-01-10T23:39:26.696Z,1.10
2019-01-10T23:41:58.281Z,1.10
2019-01-10T23:44:28.763Z,1.10
2019-01-10T23:46:59.163Z,1.00
2019-01-10T23:49:29.549Z,1.00
2019-01-10T23:51:59.937Z,1.00
2019-01-10T23:54:30.309Z,1.10
2019-01-10T23:57:00.765Z,1.10
2019-01-10T23:59:31.222Z,1.10
